createdAt,value
2022-08-07T00:00:28.737Z,88.00
2022-08-07T00:01:44.206Z,87.90
2022-08-07T00:02:40.681Z,87.90
2022-08-07T00:03:28.726Z,88.00
2022-08-07T00:04:28.735Z,88.20
2022-08-07T00:05:28.797Z,88.10
2022-08-07T00:06:29.468Z,87.79
2022-08-07T00:07:28.862Z,87.69
2022-08-07T00:08:28.959Z,87.79
2022-08-07T00:09:35.557Z,88.10
2022-08-07T00:10:30.051Z,88.04
2022-08-07T00:11:30.100Z,88.45
2022-08-07T00:12:28.704Z,88.85
2022-08-07T00:13:28.654Z,89.06
2022-08-07T00:14:30.241Z,88.75
2022-08-07T00:15:36.169Z,88.85
2022-08-07T00:16:28.684Z,88.85
2022-08-07T00:17:29.004Z,89.26
2022-08-07T00:18:28.643Z,88.96
2022-08-07T00:19:59.860Z,88.85
2022-08-07T00:20:29.547Z,88.85
2022-08-07T00:21:55.447Z,88.96
2022-08-07T00:22:35.212Z,89.20
2022-08-07T00:23:30.228Z,89.61
2022-08-07T00:24:31.705Z,90.22
2022-08-07T00:25:28.571Z,89.92
2022-08-07T00:26:48.778Z,89.71
2022-08-07T00:27:28.789Z,89.71
2022-08-07T00:28:33.416Z,89.61
2022-08-07T00:29:31.437Z,89.51
2022-08-07T00:30:28.698Z,89.61
2022-08-07T00:31:37.567Z,90.01
2022-08-07T00:32:28.686Z,89.61
2022-08-07T00:33:28.721Z,89.61
2022-08-07T00:34:28.969Z,89.81
2022-08-07T00:35:29.744Z,90.73
2022-08-07T00:36:28.531Z,90.36
2022-08-07T00:37:29.308Z,90.06
2022-08-07T00:38:31.737Z,89.96
2022-08-07T00:39:28.564Z,90.16
2022-08-07T00:40:40.110Z,90.36
2022-08-07T00:41:28.527Z,90.16
2022-08-07T00:42:29.253Z,90.32
2022-08-07T00:44:00.978Z,89.92
2022-08-07T00:44:29.448Z,90.16
2022-08-07T00:45:28.436Z,90.57
2022-08-07T00:46:28.423Z,90.47
2022-08-07T00:48:09.436Z,90.36
2022-08-07T00:48:31.734Z,90.26
2022-08-07T00:50:19.476Z,90.26
2022-08-07T00:50:50.929Z,90.36
2022-08-07T00:51:57.071Z,90.98
2022-08-07T00:52:28.418Z,90.77
2022-08-07T00:53:38.623Z,90.47
2022-08-07T00:54:28.368Z,90.67
2022-08-07T00:56:00.584Z,90.88
2022-08-07T00:56:29.969Z,90.98
2022-08-07T00:57:28.634Z,91.28
2022-08-07T00:58:28.798Z,91.63
2022-08-07T00:59:35.325Z,92.00
2022-08-07T01:00:28.636Z,91.69
2022-08-07T01:01:28.421Z,91.59
2022-08-07T01:02:29.593Z,91.63
2022-08-07T01:03:55.955Z,91.94
2022-08-07T01:04:30.321Z,92.35
2022-08-07T01:05:28.294Z,92.55
2022-08-07T01:06:28.396Z,92.86
2022-08-07T01:07:29.611Z,93.31
2022-08-07T01:08:28.306Z,94.02
2022-08-07T01:10:04.755Z,94.43
2022-08-07T01:10:28.266Z,94.84
2022-08-07T01:12:10.025Z,94.94
2022-08-07T01:12:30.730Z,95.00
2022-08-07T01:13:28.243Z,94.79
2022-08-07T01:14:29.010Z,94.59
2022-08-07T01:16:00.484Z,94.59
2022-08-07T01:16:30.438Z,94.38
2022-08-07T01:17:28.349Z,93.82
2022-08-07T01:18:28.212Z,93.71
2022-08-07T01:19:32.646Z,93.41
2022-08-07T01:20:30.877Z,93.41
2022-08-07T01:21:28.522Z,93.41
2022-08-07T01:22:29.377Z,93.62
2022-08-07T01:23:36.784Z,94.17
2022-08-07T01:24:28.181Z,94.58
2022-08-07T01:25:53.645Z,94.68
2022-08-07T01:26:28.160Z,94.89
2022-08-07T01:27:32.315Z,94.98
2022-08-07T01:28:28.501Z,94.89
2022-08-07T01:29:33.720Z,95.09
2022-08-07T01:30:28.132Z,95.09
2022-08-07T01:31:41.742Z,94.58
2022-08-07T01:32:28.119Z,94.37
2022-08-07T01:33:47.662Z,94.37
2022-08-07T01:34:30.793Z,94.48
2022-08-07T01:35:52.883Z,94.98
2022-08-07T01:36:33.354Z,94.98
2022-08-07T01:37:28.389Z,94.58
2022-08-07T01:38:29.153Z,93.66
2022-08-07T01:39:40.969Z,93.76
2022-08-07T01:40:28.079Z,94.07
2022-08-07T01:41:28.151Z,94.17
2022-08-07T01:42:39.718Z,94.68
2022-08-07T01:43:38.100Z,94.89
2022-08-07T01:44:28.049Z,95.09
2022-08-07T01:45:37.260Z,94.89
2022-08-07T01:46:28.018Z,94.89
2022-08-07T01:48:18.048Z,94.89
2022-08-07T01:48:30.083Z,95.09
2022-08-07T01:49:28.058Z,94.27
2022-08-07T01:50:28.973Z,93.66
2022-08-07T01:52:03.970Z,93.70
2022-08-07T01:52:27.987Z,93.70
2022-08-07T01:54:09.555Z,93.60
2022-08-07T01:54:36.504Z,93.80
2022-08-07T01:55:27.958Z,94.01
2022-08-07T01:56:29.085Z,94.32
2022-08-07T01:57:27.937Z,94.42
2022-08-07T01:58:29.436Z,94.52
2022-08-07T01:59:31.178Z,94.56
2022-08-07T02:00:28.849Z,94.87
2022-08-07T02:02:00.150Z,95.07
2022-08-07T02:03:12.565Z,95.28
2022-08-07T02:03:42.923Z,95.38
2022-08-07T02:04:28.129Z,95.69
2022-08-07T02:05:47.725Z,95.59
2022-08-07T02:06:31.950Z,95.69
2022-08-07T02:07:44.871Z,95.48
2022-08-07T02:08:27.894Z,95.07
2022-08-07T02:09:52.023Z,94.87
2022-08-07T02:10:27.950Z,94.77
2022-08-07T02:11:30.982Z,94.73
2022-08-07T02:12:29.357Z,94.73
2022-08-07T02:13:57.143Z,94.52
2022-08-07T02:14:36.391Z,94.21
2022-08-07T02:15:28.260Z,94.21
2022-08-07T02:16:28.799Z,94.32
2022-08-07T02:17:34.067Z,94.26
2022-08-07T02:18:27.873Z,94.36
2022-08-07T02:20:06.993Z,94.36
2022-08-07T02:20:27.816Z,94.36
2022-08-07T02:21:27.955Z,94.77
2022-08-07T02:22:27.923Z,94.97
2022-08-07T02:23:28.058Z,95.18
2022-08-07T02:24:29.476Z,95.23
2022-08-07T02:26:11.438Z,95.34
2022-08-07T02:26:34.023Z,95.34
2022-08-07T02:27:34.104Z,95.18
2022-08-07T02:28:27.741Z,94.97
2022-08-07T02:29:27.730Z,94.56
2022-08-07T02:30:27.742Z,94.06
2022-08-07T02:31:28.418Z,94.26
2022-08-07T02:32:30.199Z,94.36
2022-08-07T02:33:32.823Z,94.46
2022-08-07T02:34:27.700Z,94.56
2022-08-07T02:36:28.943Z,94.67
2022-08-07T02:36:32.623Z,94.46
2022-08-07T02:37:27.929Z,94.26
2022-08-07T02:38:28.101Z,94.36
2022-08-07T02:39:43.418Z,94.46
2022-08-07T02:40:31.115Z,94.77
2022-08-07T02:41:33.467Z,95.28
2022-08-07T02:42:28.369Z,95.38
2022-08-07T02:43:27.649Z,95.48
2022-08-07T02:44:34.879Z,95.69
2022-08-07T02:45:58.461Z,95.69
2022-08-07T02:46:27.619Z,95.69
2022-08-07T02:47:27.609Z,95.48
2022-08-07T02:48:28.095Z,94.97
2022-08-07T02:49:28.773Z,94.97
2022-08-07T02:50:30.727Z,94.87
2022-08-07T02:51:41.776Z,95.07
2022-08-07T02:52:31.179Z,95.18
2022-08-07T02:53:27.787Z,94.77
2022-08-07T02:54:27.608Z,94.06
2022-08-07T02:56:02.013Z,94.15
2022-08-07T02:56:27.962Z,94.15
2022-08-07T02:57:28.581Z,94.30
2022-08-07T02:58:27.546Z,94.30
2022-08-07T02:59:27.863Z,94.60
2022-08-07T03:00:27.690Z,94.81
2022-08-07T03:01:35.552Z,94.51
2022-08-07T03:02:27.964Z,95.12
2022-08-07T03:03:29.447Z,95.43
2022-08-07T03:04:28.056Z,94.81
2022-08-07T03:05:35.648Z,94.92
2022-08-07T03:06:33.082Z,95.32
2022-08-07T03:08:05.122Z,95.22
2022-08-07T03:08:29.550Z,94.77
2022-08-07T03:09:43.850Z,95.12
2022-08-07T03:10:27.632Z,95.28
2022-08-07T03:11:28.247Z,95.07
2022-08-07T03:12:31.132Z,95.38
2022-08-07T03:13:27.447Z,95.18
2022-08-07T03:14:28.075Z,95.18
2022-08-07T03:15:47.433Z,95.38
2022-08-07T03:16:27.847Z,95.38
2022-08-07T03:17:27.712Z,95.28
2022-08-07T03:18:35.036Z,95.48
2022-08-07T03:19:28.896Z,95.32
2022-08-07T03:20:28.291Z,95.22
2022-08-07T03:21:27.453Z,95.32
2022-08-07T03:22:30.327Z,95.43
2022-08-07T03:23:33.884Z,95.63
2022-08-07T03:24:28.111Z,95.32
2022-08-07T03:25:27.363Z,95.73
2022-08-07T03:26:27.372Z,95.73
2022-08-07T03:27:30.259Z,95.84
2022-08-07T03:28:38.162Z,95.73
2022-08-07T03:29:28.203Z,95.94
2022-08-07T03:30:27.332Z,96.34
2022-08-07T03:31:42.508Z,96.55
2022-08-07T03:32:28.346Z,96.55
2022-08-07T03:33:32.318Z,96.04
2022-08-07T03:34:27.610Z,96.34
2022-08-07T03:35:27.532Z,96.45
2022-08-07T03:36:27.567Z,95.94
2022-08-07T03:37:27.669Z,95.73
2022-08-07T03:38:29.707Z,95.63
2022-08-07T03:39:56.594Z,95.84
2022-08-07T03:40:27.436Z,96.08
2022-08-07T03:41:42.359Z,96.45
2022-08-07T03:42:27.267Z,96.70
2022-08-07T03:43:32.296Z,96.96
2022-08-07T03:44:34.183Z,96.75
2022-08-07T03:45:30.637Z,96.66
2022-08-07T03:46:27.235Z,96.39
2022-08-07T03:47:28.010Z,95.98
2022-08-07T03:48:27.207Z,96.34
2022-08-07T03:49:27.207Z,96.04
2022-08-07T03:50:28.726Z,95.67
2022-08-07T03:51:31.048Z,96.08
2022-08-07T03:52:27.431Z,96.08
2022-08-07T03:54:00.636Z,95.88
2022-08-07T03:54:35.840Z,96.29
2022-08-07T03:55:42.795Z,95.98
2022-08-07T03:56:33.525Z,95.88
2022-08-07T03:58:33.843Z,95.78
2022-08-07T03:59:04.786Z,95.88
2022-08-07T03:59:27.607Z,96.29
2022-08-07T04:00:33.702Z,95.98
2022-08-07T04:01:27.227Z,96.19
2022-08-07T04:02:27.474Z,96.39
2022-08-07T04:03:27.787Z,96.91
2022-08-07T04:04:27.104Z,97.11
2022-08-07T04:05:39.528Z,96.80
2022-08-07T04:06:37.209Z,96.19
2022-08-07T04:07:35.932Z,96.33
2022-08-07T04:08:27.123Z,96.19
2022-08-07T04:09:38.061Z,96.44
2022-08-07T04:10:27.070Z,96.44
2022-08-07T04:12:27.824Z,96.59
2022-08-07T04:12:29.029Z,96.49
2022-08-07T04:13:27.603Z,96.29
2022-08-07T04:14:37.631Z,96.19
2022-08-07T04:15:27.132Z,96.29
2022-08-07T04:16:31.422Z,95.88
2022-08-07T04:18:04.586Z,95.67
2022-08-07T04:18:58.618Z,95.98
2022-08-07T04:19:50.921Z,96.19
2022-08-07T04:20:27.013Z,96.49
2022-08-07T04:21:27.002Z,96.59
2022-08-07T04:22:29.091Z,96.59
2022-08-07T04:23:43.706Z,96.29
2022-08-07T04:24:30.776Z,96.19
2022-08-07T04:25:29.266Z,96.49
2022-08-07T04:26:28.654Z,96.80
2022-08-07T04:27:27.219Z,97.00
2022-08-07T04:28:26.960Z,97.21
2022-08-07T04:29:26.959Z,97.11
2022-08-07T04:30:39.540Z,96.91
2022-08-07T04:31:39.225Z,97.31
2022-08-07T04:32:34.098Z,97.31
2022-08-07T04:33:27.003Z,96.55
2022-08-07T04:34:33.035Z,96.29
2022-08-07T04:35:34.997Z,96.14
2022-08-07T04:36:26.912Z,96.04
2022-08-07T04:37:26.920Z,95.73
2022-08-07T04:38:26.897Z,95.63
2022-08-07T04:39:26.948Z,95.73
2022-08-07T04:40:30.071Z,95.94
2022-08-07T04:41:26.877Z,95.63
2022-08-07T04:42:28.756Z,95.53
2022-08-07T04:44:09.632Z,95.89
2022-08-07T04:44:26.836Z,96.00
2022-08-07T04:45:57.397Z,95.69
2022-08-07T04:46:34.255Z,95.48
2022-08-07T04:47:58.748Z,95.48
2022-08-07T04:48:27.038Z,95.69
2022-08-07T04:49:27.086Z,95.44
2022-08-07T04:50:26.806Z,95.23
2022-08-07T04:51:27.248Z,94.82
2022-08-07T04:52:27.594Z,94.73
2022-08-07T04:53:40.150Z,94.62
2022-08-07T04:54:29.950Z,94.42
2022-08-07T04:58:07.320Z,94.27
2022-08-07T04:58:09.386Z,94.17
2022-08-07T04:58:12.971Z,94.27
2022-08-07T04:58:48.812Z,94.17
2022-08-07T05:00:09.949Z,93.76
2022-08-07T05:00:30.595Z,93.92
2022-08-07T05:01:29.922Z,93.71
2022-08-07T05:02:26.724Z,93.41
2022-08-07T05:03:38.777Z,94.02
2022-08-07T05:04:26.733Z,94.23
2022-08-07T05:05:52.791Z,94.12
2022-08-07T05:06:28.135Z,94.12
2022-08-07T05:07:30.699Z,94.23
2022-08-07T05:08:58.965Z,94.33
2022-08-07T05:09:27.957Z,94.64
2022-08-07T05:10:27.082Z,94.59
2022-08-07T05:11:26.692Z,93.88
2022-08-07T05:12:30.532Z,92.76
2022-08-07T05:14:52.168Z,91.74
2022-08-07T05:14:54.050Z,92.65
2022-08-07T05:15:26.647Z,90.67
2022-08-07T05:16:26.640Z,90.32
2022-08-07T05:17:50.380Z,88.90
2022-08-07T05:18:26.890Z,89.57
2022-08-07T05:19:32.847Z,90.28
2022-08-07T05:20:26.611Z,89.87
2022-08-07T05:21:59.356Z,89.26
2022-08-07T05:22:27.861Z,89.36
2022-08-07T05:23:30.921Z,89.87
2022-08-07T05:24:30.508Z,89.87
2022-08-07T05:25:54.523Z,89.87
2022-08-07T05:26:26.581Z,90.28
2022-08-07T05:28:16.751Z,90.03
2022-08-07T05:28:27.606Z,89.73
2022-08-07T05:29:26.579Z,89.32
2022-08-07T05:30:32.852Z,89.63
2022-08-07T05:31:35.019Z,89.12
2022-08-07T05:32:26.797Z,88.87
2022-08-07T05:33:26.919Z,88.67
2022-08-07T05:34:27.737Z,88.36
2022-08-07T05:35:33.622Z,88.06
2022-08-07T05:36:32.183Z,88.32
2022-08-07T05:37:26.962Z,88.22
2022-08-07T05:38:59.437Z,88.02
2022-08-07T05:40:16.783Z,88.02
2022-08-07T05:40:26.659Z,87.67
2022-08-07T05:41:26.509Z,87.26
2022-08-07T05:42:34.303Z,86.86
2022-08-07T05:43:49.668Z,87.02
2022-08-07T05:44:29.600Z,87.02
2022-08-07T05:45:47.739Z,86.77
2022-08-07T05:46:26.556Z,86.47
2022-08-07T05:47:38.328Z,86.37
2022-08-07T05:48:26.873Z,86.98
2022-08-07T05:49:26.535Z,86.98
2022-08-07T05:50:27.455Z,86.57
2022-08-07T05:51:26.415Z,86.37
2022-08-07T05:52:32.267Z,86.57
2022-08-07T05:54:14.105Z,86.77
2022-08-07T05:54:44.113Z,86.63
2022-08-07T05:56:02.781Z,86.33
2022-08-07T05:56:30.084Z,85.72
2022-08-07T05:57:30.476Z,85.27
2022-08-07T05:58:36.435Z,85.47
2022-08-07T05:59:27.435Z,85.38
2022-08-07T06:00:26.483Z,85.07
2022-08-07T06:01:26.352Z,84.87
2022-08-07T06:02:28.784Z,84.42
2022-08-07T06:03:26.630Z,84.12
2022-08-07T06:04:30.207Z,83.31
2022-08-07T06:05:28.398Z,82.86
2022-08-07T06:06:29.909Z,81.95
2022-08-07T06:08:14.504Z,80.90
2022-08-07T06:08:30.786Z,80.49
2022-08-07T06:10:04.118Z,80.79
2022-08-07T06:10:26.271Z,80.25
2022-08-07T06:11:26.312Z,79.64
2022-08-07T06:12:31.612Z,78.39
2022-08-07T06:14:10.595Z,78.49
2022-08-07T06:14:28.674Z,77.28
2022-08-07T06:15:39.380Z,78.19
2022-08-07T06:16:29.140Z,77.44
2022-08-07T06:17:30.578Z,76.63
2022-08-07T06:18:27.985Z,76.43
2022-08-07T06:19:57.815Z,75.38
2022-08-07T06:20:38.142Z,75.99
2022-08-07T06:22:14.585Z,75.68
2022-08-07T06:22:27.108Z,75.34
2022-08-07T06:24:38.365Z,76.86
2022-08-07T06:24:38.695Z,76.26
2022-08-07T06:25:26.169Z,75.75
2022-08-07T06:26:27.518Z,76.15
2022-08-07T06:27:59.734Z,75.21
2022-08-07T06:28:27.728Z,75.10
2022-08-07T06:29:26.189Z,75.31
2022-08-07T06:30:35.530Z,75.10
2022-08-07T06:31:46.774Z,74.50
2022-08-07T06:32:29.269Z,73.59
2022-08-07T06:33:26.128Z,72.64
2022-08-07T06:34:29.753Z,73.15
2022-08-07T06:35:39.048Z,72.21
2022-08-07T06:36:35.174Z,72.61
2022-08-07T06:37:26.326Z,72.00
2022-08-07T06:38:26.078Z,71.87
2022-08-07T06:40:17.562Z,72.38
2022-08-07T06:40:29.826Z,73.38
2022-08-07T06:41:59.141Z,72.48
2022-08-07T06:42:34.923Z,72.07
2022-08-07T06:43:26.743Z,71.67
2022-08-07T06:44:26.038Z,72.17
2022-08-07T06:45:26.299Z,71.84
2022-08-07T06:46:31.584Z,71.84
2022-08-07T06:47:27.051Z,72.54
2022-08-07T06:48:26.019Z,71.44
2022-08-07T06:49:26.025Z,71.00
2022-08-07T06:50:26.027Z,70.79
2022-08-07T06:51:33.571Z,70.69
2022-08-07T06:52:31.393Z,71.30
2022-08-07T06:55:29.492Z,71.00
2022-08-07T06:55:33.325Z,70.69
2022-08-07T06:55:34.451Z,70.59
2022-08-07T06:56:25.965Z,70.46
2022-08-07T06:57:39.418Z,70.96
2022-08-07T06:58:28.743Z,71.20
2022-08-07T07:00:12.996Z,71.60
2022-08-07T07:00:26.015Z,71.47
2022-08-07T07:01:25.978Z,71.47
2022-08-07T07:02:53.336Z,71.37
2022-08-07T07:03:39.519Z,71.53
2022-08-07T07:04:32.271Z,71.84
2022-08-07T07:06:03.104Z,71.30
2022-08-07T07:06:26.232Z,70.15
2022-08-07T07:07:59.271Z,69.55
2022-08-07T07:08:26.657Z,70.49
2022-08-07T07:09:25.873Z,70.79
2022-08-07T07:10:26.613Z,71.06
2022-08-07T07:12:08.552Z,70.66
2022-08-07T07:12:31.188Z,70.73
2022-08-07T07:13:55.690Z,69.72
2022-08-07T07:14:25.843Z,68.81
2022-08-07T07:15:26.354Z,67.60
2022-08-07T07:16:27.341Z,68.61
2022-08-07T07:17:28.793Z,68.21
2022-08-07T07:18:47.538Z,68.81
2022-08-07T07:19:57.156Z,69.72
2022-08-07T07:20:25.820Z,69.65
2022-08-07T07:21:27.358Z,69.99
2022-08-07T07:22:36.380Z,69.89
2022-08-07T07:24:10.800Z,71.30
2022-08-07T07:24:25.793Z,71.10
2022-08-07T07:26:32.658Z,71.00
2022-08-07T07:26:33.380Z,70.66
2022-08-07T07:27:25.754Z,69.65
2022-08-07T07:28:42.484Z,68.54
2022-08-07T07:29:55.964Z,69.15
2022-08-07T07:30:32.517Z,69.68
2022-08-07T07:31:25.753Z,70.19
2022-08-07T07:32:25.721Z,70.79
2022-08-07T07:33:25.722Z,70.46
2022-08-07T07:34:30.822Z,69.92
2022-08-07T07:35:25.701Z,69.85
2022-08-07T07:36:32.719Z,69.55
2022-08-07T07:37:49.749Z,70.36
2022-08-07T07:38:25.681Z,69.65
2022-08-07T07:39:25.836Z,69.82
2022-08-07T07:40:26.313Z,68.91
2022-08-07T07:41:50.460Z,70.32
2022-08-07T07:42:25.925Z,69.79
2022-08-07T07:43:27.678Z,69.56
2022-08-07T07:44:26.646Z,68.01
2022-08-07T07:46:36.788Z,67.81
2022-08-07T07:46:40.494Z,68.11
2022-08-07T07:47:25.757Z,68.62
2022-08-07T07:48:35.756Z,68.51
2022-08-07T07:50:34.517Z,67.74
2022-08-07T07:50:36.178Z,67.98
2022-08-07T07:51:25.639Z,67.71
2022-08-07T07:52:25.598Z,66.61
2022-08-07T07:53:25.906Z,66.47
2022-08-07T07:54:25.569Z,66.35
2022-08-07T07:55:25.604Z,66.14
2022-08-07T07:56:30.005Z,66.05
2022-08-07T07:57:43.900Z,64.71
2022-08-07T07:58:25.579Z,63.40
2022-08-07T07:59:52.266Z,63.81
2022-08-07T08:00:29.369Z,63.50
2022-08-07T08:02:03.023Z,63.50
2022-08-07T08:02:35.381Z,64.40
2022-08-07T08:04:06.107Z,63.90
2022-08-07T08:04:27.391Z,64.48
2022-08-07T08:05:27.810Z,64.45
2022-08-07T08:06:26.064Z,63.24
2022-08-07T08:07:35.991Z,61.04
2022-08-07T08:08:36.209Z,61.01
2022-08-07T08:09:29.409Z,61.67
2022-08-07T08:10:37.622Z,62.53
2022-08-07T08:11:59.987Z,63.43
2022-08-07T08:12:52.696Z,65.27
2022-08-07T08:13:25.437Z,65.47
2022-08-07T08:14:26.546Z,64.90
2022-08-07T08:15:25.429Z,64.37
2022-08-07T08:16:25.468Z,64.43
2022-08-07T08:17:57.573Z,62.10
2022-08-07T08:18:25.417Z,60.86
2022-08-07T08:20:19.531Z,62.60
2022-08-07T08:20:31.880Z,62.67
2022-08-07T08:21:25.409Z,62.21
2022-08-07T08:22:28.395Z,61.88
2022-08-07T08:23:25.385Z,61.25
2022-08-07T08:24:36.626Z,61.25
2022-08-07T08:25:42.473Z,59.55
2022-08-07T08:26:25.566Z,59.82
2022-08-07T08:27:25.354Z,58.82
2022-08-07T08:28:37.670Z,58.85
2022-08-07T08:29:25.337Z,59.12
2022-08-07T08:30:25.336Z,57.92
2022-08-07T08:31:30.252Z,55.99
2022-08-07T08:32:25.623Z,56.37
2022-08-07T08:33:25.306Z,56.54
2022-08-07T08:34:27.126Z,55.94
2022-08-07T08:35:25.296Z,54.14
2022-08-07T08:36:25.553Z,54.61
2022-08-07T08:38:01.095Z,53.72
2022-08-07T08:38:25.775Z,54.52
2022-08-07T08:39:25.337Z,55.21
2022-08-07T08:40:28.625Z,55.88
2022-08-07T08:41:25.286Z,54.69
2022-08-07T08:42:25.770Z,56.31
2022-08-07T08:43:41.730Z,55.81
2022-08-07T08:44:29.340Z,54.71
2022-08-07T08:45:26.694Z,54.61
2022-08-07T08:46:25.392Z,52.69
2022-08-07T08:47:25.411Z,52.62
2022-08-07T08:48:28.406Z,53.22
2022-08-07T08:49:33.642Z,52.82
2022-08-07T08:50:35.378Z,52.77
2022-08-07T08:51:29.651Z,54.57
2022-08-07T08:52:25.195Z,55.17
2022-08-07T08:53:25.184Z,56.14
2022-08-07T08:54:25.333Z,56.84
2022-08-07T08:55:53.289Z,54.84
2022-08-07T08:56:25.185Z,56.21
2022-08-07T08:57:25.147Z,54.24
2022-08-07T08:58:28.765Z,54.27
2022-08-07T08:59:25.243Z,55.57
2022-08-07T09:00:25.134Z,56.21
2022-08-07T09:01:29.933Z,55.99
2022-08-07T09:02:34.622Z,54.96
2022-08-07T09:03:48.051Z,54.02
2022-08-07T09:04:26.025Z,54.06
2022-08-07T09:05:32.345Z,54.49
2022-08-07T09:06:25.095Z,54.19
2022-08-07T09:07:25.220Z,55.69
2022-08-07T09:08:28.535Z,56.94
2022-08-07T09:09:30.247Z,54.32
2022-08-07T09:10:25.077Z,51.70
2022-08-07T09:11:50.849Z,48.48
2022-08-07T09:12:31.109Z,50.43
2022-08-07T09:13:37.613Z,48.35
2022-08-07T09:14:29.546Z,46.86
2022-08-07T09:16:24.458Z,47.68
2022-08-07T09:16:29.899Z,48.00
2022-08-07T09:17:25.035Z,48.60
2022-08-07T09:18:25.125Z,49.00
2022-08-07T09:19:51.504Z,48.88
2022-08-07T09:20:35.341Z,47.80
2022-08-07T09:21:34.107Z,46.95
2022-08-07T09:24:28.490Z,48.75
2022-08-07T09:24:29.266Z,49.85
2022-08-07T09:24:33.364Z,50.20
2022-08-07T09:25:24.962Z,49.87
2022-08-07T09:26:24.954Z,49.55
2022-08-07T09:27:24.965Z,47.63
2022-08-07T09:30:05.649Z,48.38
2022-08-07T09:30:06.615Z,46.67
2022-08-07T09:30:28.058Z,47.27
2022-08-07T09:31:25.962Z,45.36
2022-08-07T09:32:26.509Z,46.35
2022-08-07T09:33:52.961Z,45.36
2022-08-07T09:34:26.299Z,44.68
2022-08-07T09:36:04.306Z,45.90
2022-08-07T09:36:26.990Z,45.78
2022-08-07T09:37:47.771Z,45.57
2022-08-07T09:38:24.905Z,43.68
2022-08-07T09:39:52.715Z,43.96
2022-08-07T09:40:24.901Z,44.66
2022-08-07T09:41:24.853Z,45.43
2022-08-07T09:42:25.146Z,45.01
2022-08-07T09:44:03.211Z,43.42
2022-08-07T09:44:32.684Z,43.13
2022-08-07T09:47:25.583Z,44.26
2022-08-07T09:47:51.545Z,46.12
2022-08-07T09:47:59.481Z,44.96
2022-08-07T09:48:29.785Z,45.31
2022-08-07T09:50:01.119Z,47.40
2022-08-07T09:50:26.573Z,47.10
2022-08-07T09:52:09.251Z,46.98
2022-08-07T09:52:34.624Z,46.19
2022-08-07T09:53:24.838Z,46.73
2022-08-07T09:54:28.243Z,47.19
2022-08-07T09:55:29.601Z,45.28
2022-08-07T09:56:33.819Z,44.50
2022-08-07T09:57:24.744Z,44.92
2022-08-07T09:58:32.004Z,44.74
2022-08-07T09:59:29.410Z,45.52
2022-08-07T10:00:29.918Z,45.10
2022-08-07T10:01:51.546Z,45.32
2022-08-07T10:02:24.716Z,46.72
2022-08-07T10:04:07.118Z,47.49
2022-08-07T10:04:24.708Z,45.45
2022-08-07T10:05:29.731Z,44.04
2022-08-07T10:06:24.793Z,44.16
2022-08-07T10:07:26.106Z,42.79
2022-08-07T10:08:24.694Z,44.48
2022-08-07T10:09:42.826Z,43.46
2022-08-07T10:10:24.662Z,44.14
2022-08-07T10:12:02.721Z,43.82
2022-08-07T10:12:26.154Z,44.32
2022-08-07T10:13:55.219Z,44.81
2022-08-07T10:14:30.385Z,45.51
2022-08-07T10:15:24.635Z,44.99
2022-08-07T10:16:24.633Z,43.10
2022-08-07T10:17:24.686Z,43.90
2022-08-07T10:18:26.567Z,43.35
2022-08-07T10:19:24.624Z,43.82
2022-08-07T10:20:30.390Z,43.80
2022-08-07T10:22:15.036Z,43.08
2022-08-07T10:22:24.977Z,41.67
2022-08-07T10:24:04.720Z,41.85
2022-08-07T10:24:24.571Z,40.74
2022-08-07T10:25:24.553Z,40.55
2022-08-07T10:26:24.991Z,40.64
2022-08-07T10:27:24.544Z,40.15
2022-08-07T10:28:24.557Z,39.93
2022-08-07T10:29:24.532Z,41.47
2022-08-07T10:30:24.945Z,41.69
2022-08-07T10:31:24.513Z,42.49
2022-08-07T10:32:51.193Z,43.88
2022-08-07T10:34:05.784Z,42.61
2022-08-07T10:34:27.251Z,41.99
2022-08-07T10:35:25.740Z,42.17
2022-08-07T10:36:29.941Z,42.15
2022-08-07T10:37:26.497Z,40.86
2022-08-07T10:38:48.010Z,40.56
2022-08-07T10:39:25.714Z,42.79
2022-08-07T10:40:24.513Z,42.80
2022-08-07T10:41:46.527Z,44.04
2022-08-07T10:42:31.252Z,42.53
2022-08-07T10:43:34.377Z,42.69
2022-08-07T10:44:37.971Z,41.38
2022-08-07T10:45:45.453Z,40.58
2022-08-07T10:46:24.422Z,42.69
2022-08-07T10:47:27.214Z,41.97
2022-08-07T10:48:24.433Z,42.45
2022-08-07T10:49:45.168Z,41.36
2022-08-07T10:50:25.855Z,43.06
2022-08-07T10:51:57.651Z,41.73
2022-08-07T10:52:31.801Z,41.99
2022-08-07T10:53:24.384Z,39.89
2022-08-07T10:54:24.371Z,39.40
2022-08-07T10:55:37.678Z,38.96
2022-08-07T10:56:30.973Z,37.24
2022-08-07T10:57:34.080Z,35.63
2022-08-07T10:58:31.841Z,34.61
2022-08-07T10:59:24.333Z,34.91
2022-08-07T11:00:39.523Z,34.92
2022-08-07T11:01:24.366Z,36.04
2022-08-07T11:02:32.832Z,36.65
2022-08-07T11:03:24.331Z,36.36
2022-08-07T11:04:32.055Z,37.94
2022-08-07T11:05:24.337Z,36.88
2022-08-07T11:06:26.956Z,37.22
2022-08-07T11:07:56.564Z,37.49
2022-08-07T11:08:30.166Z,37.37
2022-08-07T11:10:09.470Z,38.28
2022-08-07T11:10:24.319Z,39.65
2022-08-07T11:11:24.252Z,38.82
2022-08-07T11:12:31.510Z,39.16
2022-08-07T11:14:43.772Z,38.63
2022-08-07T11:14:45.764Z,37.21
2022-08-07T11:15:31.435Z,35.83
2022-08-07T11:16:29.815Z,35.99
2022-08-07T11:17:43.387Z,35.46
2022-08-07T11:18:24.518Z,35.40
2022-08-07T11:19:27.462Z,34.72
2022-08-07T11:20:24.912Z,35.31
2022-08-07T11:21:24.543Z,36.63
2022-08-07T11:22:32.344Z,35.68
2022-08-07T11:23:26.344Z,36.61
2022-08-07T11:24:24.255Z,36.76
2022-08-07T11:25:24.173Z,35.46
2022-08-07T11:26:24.173Z,35.44
2022-08-07T11:28:01.011Z,34.44
2022-08-07T11:28:24.808Z,33.03
2022-08-07T11:29:40.849Z,33.12
2022-08-07T11:30:41.648Z,32.71
2022-08-07T11:31:24.132Z,31.90
2022-08-07T11:32:25.292Z,32.12
2022-08-07T11:33:48.755Z,33.36
2022-08-07T11:34:24.182Z,34.15
2022-08-07T11:35:25.145Z,32.46
2022-08-07T11:36:25.413Z,33.43
2022-08-07T11:37:24.195Z,32.59
2022-08-07T11:38:28.085Z,33.59
2022-08-07T11:39:24.153Z,32.98
2022-08-07T11:40:24.138Z,34.20
2022-08-07T11:41:29.637Z,34.71
2022-08-07T11:42:29.580Z,34.71
2022-08-07T11:43:41.752Z,34.58
2022-08-07T11:44:24.077Z,33.28
2022-08-07T11:45:35.489Z,34.33
2022-08-07T11:46:24.063Z,33.87
2022-08-07T11:47:38.634Z,33.97
2022-08-07T11:48:30.161Z,34.17
2022-08-07T11:49:50.530Z,33.48
2022-08-07T11:50:31.791Z,33.87
2022-08-07T11:51:41.976Z,32.70
2022-08-07T11:52:29.360Z,33.46
2022-08-07T11:53:24.003Z,34.27
2022-08-07T11:54:25.574Z,33.03
2022-08-07T11:56:11.974Z,33.25
2022-08-07T11:56:27.064Z,36.19
2022-08-07T11:57:58.185Z,34.38
2022-08-07T11:58:33.582Z,34.54
2022-08-07T12:00:10.940Z,33.44
2022-08-07T12:00:28.522Z,33.94
2022-08-07T12:01:23.955Z,33.22
2022-08-07T12:02:30.784Z,34.43
2022-08-07T12:03:45.740Z,36.21
2022-08-07T12:04:23.946Z,36.55
2022-08-07T12:05:28.698Z,36.73
2022-08-07T12:06:37.674Z,35.58
2022-08-07T12:07:27.173Z,36.57
2022-08-07T12:08:26.091Z,35.25
2022-08-07T12:09:23.972Z,34.86
2022-08-07T12:10:23.926Z,34.53
2022-08-07T12:11:23.909Z,34.33
2022-08-07T12:12:24.494Z,34.92
2022-08-07T12:13:37.052Z,35.55
2022-08-07T12:14:23.893Z,36.57
2022-08-07T12:15:46.134Z,36.87
2022-08-07T12:16:30.034Z,36.24
2022-08-07T12:17:23.884Z,35.91
2022-08-07T12:18:29.892Z,34.69
2022-08-07T12:19:23.933Z,34.20
2022-08-07T12:20:30.295Z,33.80
2022-08-07T12:22:36.542Z,35.05
2022-08-07T12:22:37.405Z,35.12
2022-08-07T12:23:37.257Z,33.61
2022-08-07T12:24:38.296Z,33.67
2022-08-07T12:26:06.042Z,34.53
2022-08-07T12:26:30.077Z,36.90
2022-08-07T12:27:28.068Z,37.63
2022-08-07T12:28:24.132Z,37.38
2022-08-07T12:29:38.253Z,36.14
2022-08-07T12:30:23.804Z,36.68
2022-08-07T12:31:23.805Z,34.30
2022-08-07T12:32:23.805Z,34.22
2022-08-07T12:33:28.212Z,33.29
2022-08-07T12:34:25.969Z,33.89
2022-08-07T12:35:24.026Z,35.99
2022-08-07T12:36:32.808Z,36.29
2022-08-07T12:37:28.517Z,34.61
2022-08-07T12:38:36.872Z,35.97
2022-08-07T12:39:42.351Z,34.30
2022-08-07T12:40:46.187Z,35.17
2022-08-07T12:41:23.786Z,33.98
2022-08-07T12:42:27.554Z,33.70
2022-08-07T12:44:02.415Z,34.77
2022-08-07T12:44:23.733Z,33.22
2022-08-07T12:45:23.724Z,32.34
2022-08-07T12:46:31.994Z,34.00
2022-08-07T12:47:26.998Z,34.59
2022-08-07T12:48:28.378Z,34.30
2022-08-07T12:49:25.639Z,33.74
2022-08-07T12:50:34.104Z,34.38
2022-08-07T12:51:23.677Z,35.05
2022-08-07T12:52:23.664Z,35.73